FW1458 Weather Reports


Display with metric or nautical units.
time (UTC)temp
F
wind
direction
speed
MPH
gust
MPH
rain 1hr
in
rain 24hr
in
rain mn
in
humidity
%
barometer
mb
20190720140044 83 164 5.0 16.0 0.00 0.00 0.00 77 1012.3
20190720134522 83 209 4.0 12.0 0.00 0.00 0.00 79 1012.2
20190720133019 82 229 6.0 12.0 0.00 0.00 0.00 79 1012.2
20190720131533 81 162 4.0 10.0 0.00 0.00 0.00 82 1012.2
20190720130046 79 169 4.0 8.0 0.00 0.00 0.00 84 1012.2
20190720124516 78 167 4.0 8.0 0.00 0.00 0.00 86 1012.2
20190720123100 77 156 4.0 11.0 0.00 0.00 0.00 87 1012.2
20190720121510 76 155 4.0 9.0 0.00 0.00 0.00 88 1012.1
20190720120045 76 143 4.0 8.0 0.00 0.00 0.00 88 1012.1
20190720114514 76 155 3.0 6.0 0.00 0.00 0.00 88 1012.0
20190720113011 75 155 2.0 5.0 0.00 0.00 0.00 89 1012.1
20190720111536 76 177 3.0 7.0 0.00 0.00 0.00 88 1012.0
20190720110007 76 121 4.0 7.0 0.00 0.00 0.00 87 1011.9
20190720104502 76 117 2.0 6.0 0.00 0.00 0.00 86 1011.8
20190720103212 77 144 2.0 9.0 0.00 0.00 0.00 86 1011.7
20190720101705 77 185 2.0 4.0 0.00 0.00 0.00 86 1011.6
20190720100139 77 144 2.0 5.0 0.00 0.00 0.00 85 1011.4
20190720094704 77 155 2.0 8.0 0.00 0.00 0.00 85 1011.4
20190720093158 77 147 3.0 7.0 0.00 0.00 0.00 84 1011.3
20190720091705 78 150 3.0 7.0 0.00 0.00 0.00 83 1011.2
20190720090115 79 138 3.0 11.0 0.00 0.00 0.00 80 1011.0
20190720084629 81 199 6.0 10.0 0.00 0.00 0.00 77 1010.9
20190720083134 80 182 5.0 12.0 0.00 0.00 0.00 77 1010.9
20190720081746 81 197 4.0 10.0 0.00 0.00 0.00 77 1010.9
20190720080120 80 194 4.0 8.0 0.00 0.00 0.00 77 1010.8
20190720074635 80 148 4.0 10.0 0.00 0.00 0.00 78 1010.9
20190720073057 80 178 4.0 10.0 0.00 0.00 0.00 78 1010.8
20190720071651 80 182 4.0 10.0 0.00 0.00 0.00 78 1010.7
20190720070132 81 179 5.0 9.0 0.00 0.00 0.00 77 1010.9
20190720064630 81 163 5.0 14.0 0.00 0.00 0.00 77 1010.8
20190720063149 81 171 4.0 9.0 0.00 0.00 0.00 76 1010.8
20190720061621 82 142 3.0 8.0 0.00 0.00 0.00 75 1011.1
20190720060115 82 176 4.0 11.0 0.00 0.00 0.00 75 1011.1
20190720054638 82 167 5.0 14.0 0.00 0.00 0.00 74 1011.3
20190720053135 83 177 6.0 11.0 0.00 0.00 0.00 73 1011.2
20190720051601 83 192 6.0 11.0 0.00 0.00 0.00 72 1011.3
20190720050033 84 197 6.0 11.0 0.00 0.00 0.00 71 1011.2
20190720044524 84 153 7.0 13.0 0.00 0.00 0.00 70 1011.3
20190720043034 84 182 4.0 12.0 0.00 0.00 0.00 70 1011.4
20190720041558 85 187 4.0 14.0 0.00 0.00 0.00 69 1011.3
20190720040048 85 192 6.0 12.0 0.00 0.00 0.00 69 1011.3
20190720034527 85 165 6.0 13.0 0.00 0.00 0.00 69 1011.3
20190720033047 85 190 4.0 13.0 0.00 0.00 0.00 69 1011.3
20190720031546 85 148 4.0 10.0 0.00 0.00 0.00 69 1011.1
20190720030031 85 148 4.0 10.0 0.00 0.00 0.00 69 1010.9
20190720024601 86 210 5.0 9.0 0.00 0.00 0.00 69 1010.6
20190720023028 86 176 4.0 8.0 0.00 0.00 0.00 68 1010.4
20190720021531 87 168 4.0 10.0 0.00 0.00 0.00 67 1010.4
20190720020037 87 176 4.0 8.0 0.00 0.00 0.00 66 1010.2
20190720014521 88 166 5.0 12.0 0.00 0.00 0.00 65 1010.2
20190720013027 88 168 4.0 14.0 0.00 0.00 0.00 64 1010.0
20190720011521 89 168 5.0 15.0 0.00 0.00 0.00 63 1010.0
20190720010024 90 189 8.0 16.0 0.00 0.00 0.00 62 1009.9
20190720004546 91 196 9.0 14.0 0.00 0.00 0.00 62 1009.9
20190720003114 91 164 7.0 12.0 0.00 0.00 0.00 62 1009.8
20190720001519 92 169 7.0 15.0 0.00 0.00 0.00 62 1009.5
20190720000044 93 128 5.0 15.0 0.00 0.00 0.00 60 1009.7
20190719234514 94 222 5.0 15.0 0.00 0.00 0.00 59 1009.7
20190719233041 94 227 5.0 16.0 0.00 0.00 0.00 58 1009.6
20190719231530 94 179 9.0 15.0 0.00 0.00 0.00 56 1009.5
20190719230015 95 209 6.0 17.0 0.00 0.00 0.00 57 1009.6
20190719224520 95 167 7.0 16.0 0.00 0.00 0.00 56 1009.8
20190719223020 95 192 7.0 16.0 0.00 0.00 0.00 55 1009.9
20190719221525 96 227 4.0 14.0 0.00 0.00 0.00 57 1010.1
20190719220016 96 206 6.0 17.0 0.00 0.00 0.00 55 1010.2
20190719214505 96 179 8.0 14.0 0.00 0.00 0.00 56 1010.2
20190719213005 96 178 8.0 12.0 0.00 0.00 0.00 55 1010.3
20190719211521 96 161 7.0 15.0 0.00 0.00 0.00 57 1010.4
20190719210003 96 139 7.0 16.0 0.00 0.00 0.00 57 1010.5
20190719204502 96 204 6.0 16.0 0.00 0.00 0.00 59 1010.5
20190719203137 95 178 5.0 14.0 0.00 0.00 0.00 58 1010.5
20190719201643 96 252 9.0 15.0 0.00 0.00 0.00 52 1010.7
20190719200117 96 170 4.0 14.0 0.00 0.00 0.00 56 1010.8
20190719194624 96 194 8.0 13.0 0.00 0.00 0.00 55 1011.1
20190719193223 95 207 8.0 17.0 0.00 0.00 0.00 58 1011.0
20190719191653 95 183 9.0 15.0 0.00 0.00 0.00 56 1011.1
20190719190313 95 219 7.0 14.0 0.00 0.00 0.00 56 1011.3
20190719184630 94 211 6.0 15.0 0.00 0.00 0.00 60 1011.3
20190719183140 94 207 7.0 12.0 0.00 0.00 0.00 58 1011.4
20190719181639 94 195 6.0 19.0 0.00 0.00 0.00 60 1011.5
20190719180130 94 205 8.0 16.0 0.00 0.00 0.00 58 1011.7
20190719174833 93 198 7.0 13.0 0.00 0.00 0.00 61 1011.8
20190719173109 93 185 8.0 18.0 0.00 0.00 0.00 62 1011.9
20190719171625 92 182 7.0 14.0 0.00 0.00 0.00 63 1012.0
20190719170144 92 213 7.0 17.0 0.00 0.00 0.00 64 1012.0
20190719164613 91 215 7.0 17.0 0.00 0.00 0.00 63 1011.9
20190719163110 91 174 9.0 17.0 0.00 0.00 0.00 63 1012.1
20190719161613 90 236 8.0 15.0 0.00 0.00 0.00 65 1012.0
20190719160046 90 197 7.0 16.0 0.00 0.00 0.00 66 1012.1
20190719154553 89 195 6.0 15.0 0.00 0.00 0.00 67 1012.2
20190719153056 88 178 7.0 18.0 0.00 0.00 0.00 68 1012.2
20190719151638 88 248 6.0 15.0 0.00 0.00 0.00 69 1012.2
20190719150029 87 200 9.0 15.0 0.00 0.00 0.00 70 1012.1
20190719144546 86 188 5.0 10.0 0.00 0.00 0.00 73 1012.3
20190719143021 85 197 7.0 12.0 0.00 0.00 0.00 74 1012.4
20190719141548 84 225 5.0 10.0 0.00 0.00 0.00 75 1012.3